createdAt,value
2017-08-10T00:00:43.138Z,17.50
2017-08-10T00:03:11.196Z,17.50
2017-08-10T00:05:40.296Z,17.40
2017-08-10T00:08:09.574Z,17.30
2017-08-10T00:10:37.378Z,17.30
2017-08-10T00:13:17.327Z,17.20
2017-08-10T00:15:45.125Z,17.20
2017-08-10T00:18:15.117Z,17.10
2017-08-10T00:20:42.866Z,17.10
2017-08-10T00:23:11.994Z,17.10
2017-08-10T00:25:40.237Z,17.00
2017-08-10T00:28:20.918Z,17.30
2017-08-10T00:30:49.877Z,17.20
2017-08-10T00:33:20.114Z,17.30
2017-08-10T00:35:51.072Z,17.40
2017-08-10T00:38:21.128Z,17.60
2017-08-10T00:40:48.840Z,17.50
2017-08-10T00:43:20.073Z,17.70
2017-08-10T00:46:06.165Z,17.80
2017-08-10T00:48:47.035Z,17.90
2017-08-10T00:56:51.774Z,18.00
2017-08-10T00:59:21.247Z,18.00
2017-08-10T01:01:54.296Z,18.00
2017-08-10T01:04:22.329Z,18.10
2017-08-10T01:07:06.807Z,18.10
2017-08-10T01:09:36.865Z,18.10
2017-08-10T01:12:07.989Z,18.10
2017-08-10T01:14:40.524Z,18.10
2017-08-10T01:17:10.009Z,18.10
2017-08-10T01:22:13.940Z,18.00
2017-08-10T01:24:43.196Z,17.90
2017-08-10T01:27:27.062Z,17.90
2017-08-10T01:30:11.917Z,17.90
2017-08-10T01:32:43.405Z,17.80
2017-08-10T01:35:12.947Z,17.80
2017-08-10T01:37:43.552Z,17.90
2017-08-10T01:40:12.696Z,17.70
2017-08-10T01:42:44.004Z,17.60
2017-08-10T01:45:12.384Z,17.60
2017-08-10T01:47:41.601Z,17.60
2017-08-10T01:50:09.633Z,17.60
2017-08-10T01:52:37.553Z,17.50
2017-08-10T01:55:05.238Z,17.50
2017-08-10T01:57:34.144Z,17.40
2017-08-10T02:00:02.773Z,17.40
2017-08-10T02:02:30.407Z,17.40
2017-08-10T02:04:58.058Z,17.40
2017-08-10T02:07:27.011Z,17.50
2017-08-10T02:09:54.614Z,17.50
2017-08-10T02:12:23.182Z,17.60
2017-08-10T02:14:51.618Z,17.50
2017-08-10T02:17:19.404Z,17.50
2017-08-10T02:19:55.052Z,17.60
2017-08-10T02:22:25.016Z,17.50
2017-08-10T02:27:33.652Z,17.30
2017-08-10T02:30:22.302Z,17.20
2017-08-10T02:32:56.599Z,17.10
2017-08-10T02:35:28.871Z,17.10
2017-08-10T02:37:56.385Z,17.00
2017-08-10T02:40:23.885Z,16.90
2017-08-10T02:42:51.384Z,16.90
2017-08-10T02:45:18.909Z,16.80
2017-08-10T02:47:46.425Z,16.70
2017-08-10T02:50:13.945Z,16.70
2017-08-10T02:52:42.218Z,16.60
2017-08-10T02:55:10.506Z,16.50
2017-08-10T02:57:38.016Z,16.50
2017-08-10T03:00:05.538Z,16.40
2017-08-10T03:02:33.058Z,16.30
2017-08-10T03:05:01.357Z,16.20
2017-08-10T03:07:29.634Z,16.20
2017-08-10T03:09:57.912Z,16.20
2017-08-10T03:12:26.201Z,16.30
2017-08-10T03:14:53.706Z,16.20
2017-08-10T03:17:21.221Z,16.20
2017-08-10T03:19:48.717Z,16.10
2017-08-10T03:22:16.236Z,16.10
2017-08-10T03:24:43.742Z,16.10
2017-08-10T03:27:11.252Z,16.10
2017-08-10T03:29:38.750Z,16.00
2017-08-10T03:32:06.255Z,15.90
2017-08-10T03:34:36.534Z,16.00
2017-08-10T03:40:07.390Z,16.00
2017-08-10T03:42:36.595Z,15.90
2017-08-10T03:45:06.869Z,15.80
2017-08-10T03:47:36.336Z,15.70
2017-08-10T03:50:05.573Z,15.60
2017-08-10T03:55:15.694Z,15.70
2017-08-10T03:57:44.815Z,15.80
2017-08-10T04:00:15.652Z,15.90
2017-08-10T04:02:43.748Z,15.90
2017-08-10T04:05:12.512Z,16.20
2017-08-10T04:07:40.428Z,16.20
2017-08-10T04:10:16.096Z,16.30
2017-08-10T04:12:54.097Z,16.30
2017-08-10T04:15:22.077Z,16.40
2017-08-10T04:17:53.612Z,16.40
2017-08-10T04:20:21.597Z,16.50
2017-08-10T04:22:49.931Z,16.50
2017-08-10T04:25:23.683Z,16.60
2017-08-10T04:27:53.702Z,16.60
2017-08-10T04:30:26.479Z,16.50
2017-08-10T04:32:54.554Z,16.50
2017-08-10T04:35:26.439Z,16.40
2017-08-10T04:37:54.846Z,16.50
2017-08-10T04:40:22.759Z,16.40
2017-08-10T04:42:50.626Z,16.50
2017-08-10T04:45:28.537Z,16.50
2017-08-10T04:47:57.417Z,16.60
2017-08-10T04:50:28.189Z,16.60
2017-08-10T04:53:15.685Z,16.60
2017-08-10T04:55:44.099Z,16.70
2017-08-10T04:58:17.227Z,16.60
2017-08-10T05:00:48.704Z,16.60
2017-08-10T05:03:16.883Z,16.50
2017-08-10T05:05:50.004Z,16.50
2017-08-10T05:08:26.367Z,16.50
2017-08-10T05:11:00.615Z,16.60
2017-08-10T05:13:34.569Z,16.60
2017-08-10T05:16:02.079Z,16.60
2017-08-10T05:18:29.937Z,16.70
2017-08-10T05:20:58.040Z,16.70
2017-08-10T05:23:26.004Z,16.80
2017-08-10T05:25:53.650Z,16.90
2017-08-10T05:28:21.263Z,17.00
2017-08-10T05:30:50.206Z,17.10
2017-08-10T05:33:17.725Z,17.20
2017-08-10T05:35:45.398Z,17.30
2017-08-10T05:38:13.814Z,17.40
2017-08-10T05:40:41.386Z,17.60
2017-08-10T05:43:08.947Z,17.70
2017-08-10T05:45:37.363Z,17.90
2017-08-10T05:48:04.939Z,17.90
2017-08-10T05:50:32.428Z,18.00
2017-08-10T05:52:59.947Z,18.10
2017-08-10T05:55:27.541Z,18.20
2017-08-10T05:57:55.010Z,18.30
2017-08-10T06:00:22.461Z,18.40
2017-08-10T06:02:50.036Z,18.50
2017-08-10T06:05:17.494Z,18.60
2017-08-10T06:07:45.797Z,18.70
2017-08-10T06:10:13.596Z,18.70
2017-08-10T06:12:42.014Z,18.90
2017-08-10T06:15:11.066Z,18.80
2017-08-10T06:17:38.683Z,18.70
2017-08-10T06:20:06.276Z,19.20
2017-08-10T06:22:33.706Z,20.20
2017-08-10T06:25:01.147Z,21.20
2017-08-10T06:27:28.587Z,21.90
2017-08-10T06:29:56.031Z,22.20
2017-08-10T06:32:23.479Z,22.50
2017-08-10T06:34:50.922Z,21.90
2017-08-10T06:37:18.372Z,21.50
2017-08-10T06:39:45.807Z,21.30
2017-08-10T06:42:14.042Z,21.20
2017-08-10T06:44:41.483Z,21.20
2017-08-10T06:47:08.927Z,21.10
2017-08-10T06:49:36.370Z,21.00
2017-08-10T06:52:03.823Z,20.80
2017-08-10T06:54:31.734Z,20.40
2017-08-10T06:56:59.340Z,19.50
2017-08-10T06:59:27.005Z,19.10
2017-08-10T07:01:54.590Z,19.00
2017-08-10T07:04:22.174Z,18.90
2017-08-10T07:06:49.621Z,18.70
2017-08-10T07:09:17.127Z,18.50
2017-08-10T07:11:44.655Z,18.40
2017-08-10T07:14:12.171Z,18.30
2017-08-10T07:16:40.448Z,18.40
2017-08-10T07:19:07.940Z,18.30
2017-08-10T07:21:35.405Z,18.30
2017-08-10T07:24:02.896Z,18.30
2017-08-10T07:26:30.473Z,18.30
2017-08-10T07:28:57.994Z,18.30
2017-08-10T07:31:25.598Z,18.50
2017-08-10T07:33:53.299Z,18.40
2017-08-10T07:36:21.038Z,18.40
2017-08-10T07:38:48.672Z,18.30
2017-08-10T07:41:16.142Z,18.10
2017-08-10T07:43:43.631Z,18.10
2017-08-10T07:46:11.364Z,18.20
2017-08-10T07:48:38.879Z,18.00
2017-08-10T07:51:06.424Z,18.00
2017-08-10T07:53:33.936Z,18.10
2017-08-10T07:56:01.448Z,18.10
2017-08-10T07:58:29.047Z,18.20
2017-08-10T08:01:08.739Z,18.30
2017-08-10T08:03:37.097Z,18.10
2017-08-10T08:06:04.539Z,18.00
2017-08-10T08:08:31.990Z,18.10
2017-08-10T08:10:59.453Z,18.00
2017-08-10T08:13:26.903Z,18.10
2017-08-10T08:15:54.348Z,18.20
2017-08-10T08:18:21.827Z,18.30
2017-08-10T08:20:49.270Z,18.40
2017-08-10T08:23:16.720Z,18.50
2017-08-10T08:25:44.178Z,18.50
2017-08-10T08:28:11.650Z,18.50
2017-08-10T08:30:39.110Z,18.60
2017-08-10T08:33:06.583Z,18.60
2017-08-10T08:35:34.103Z,18.60
2017-08-10T08:38:01.553Z,18.50
2017-08-10T08:40:29.003Z,18.50
2017-08-10T08:42:56.491Z,18.40
2017-08-10T08:45:23.941Z,18.30
2017-08-10T08:47:51.412Z,18.30
2017-08-10T08:50:18.842Z,18.20
2017-08-10T08:52:46.320Z,18.10
2017-08-10T08:55:13.781Z,17.90
2017-08-10T08:57:41.226Z,17.70
2017-08-10T09:00:08.693Z,17.60
2017-08-10T09:02:36.134Z,17.50
2017-08-10T09:05:03.626Z,17.50
2017-08-10T09:07:31.115Z,17.60
2017-08-10T09:10:00.072Z,17.40
2017-08-10T09:12:27.524Z,17.40
2017-08-10T09:14:55.212Z,17.40
2017-08-10T09:17:22.760Z,17.30
2017-08-10T09:19:50.246Z,17.30
2017-08-10T09:22:18.555Z,17.30
2017-08-10T09:24:46.241Z,17.30
2017-08-10T09:27:18.554Z,17.30
2017-08-10T09:29:46.216Z,17.20
2017-08-10T09:32:13.687Z,17.10
2017-08-10T09:34:41.143Z,17.30
2017-08-10T09:37:09.439Z,17.50
2017-08-10T09:39:37.756Z,17.50
2017-08-10T09:42:05.320Z,17.50
2017-08-10T09:44:32.949Z,17.60
2017-08-10T09:47:00.386Z,17.50
2017-08-10T09:49:33.376Z,17.60
2017-08-10T09:52:08.773Z,17.60
2017-08-10T09:54:36.435Z,17.50
2017-08-10T09:57:04.125Z,17.60
2017-08-10T09:59:32.402Z,17.70
2017-08-10T10:01:59.970Z,17.70
2017-08-10T10:04:28.357Z,17.90
2017-08-10T10:06:56.863Z,17.90
2017-08-10T10:09:25.320Z,17.90
2017-08-10T10:11:52.859Z,17.90
2017-08-10T10:14:20.427Z,18.00
2017-08-10T10:16:47.884Z,18.10
2017-08-10T10:19:16.383Z,18.30
2017-08-10T10:21:55.134Z,18.20
2017-08-10T10:24:23.072Z,18.30
2017-08-10T10:26:50.903Z,18.30
2017-08-10T10:31:56.738Z,17.90
2017-08-10T10:34:24.298Z,17.80
2017-08-10T10:36:51.833Z,17.80
2017-08-10T10:39:20.089Z,17.80
2017-08-10T10:41:47.616Z,17.80
2017-08-10T10:44:15.128Z,18.00
2017-08-10T10:46:43.386Z,18.30
2017-08-10T10:49:10.844Z,18.30
2017-08-10T10:51:38.419Z,18.40
2017-08-10T10:54:05.990Z,18.50
2017-08-10T10:56:33.487Z,18.50
2017-08-10T10:59:01.137Z,18.60
2017-08-10T11:01:29.434Z,18.70
2017-08-10T11:04:00.046Z,18.50
2017-08-10T11:06:29.771Z,18.40
2017-08-10T11:08:57.368Z,18.40
2017-08-10T11:11:25.384Z,18.30
2017-08-10T11:13:53.383Z,18.40
2017-08-10T11:16:23.195Z,18.20
2017-08-10T11:19:02.655Z,18.30
2017-08-10T11:21:52.735Z,18.00
2017-08-10T11:24:23.089Z,17.90
2017-08-10T11:27:03.797Z,17.90
2017-08-10T11:29:47.436Z,18.00
2017-08-10T11:32:23.266Z,17.90
2017-08-10T11:34:53.604Z,17.90
2017-08-10T11:37:23.946Z,18.00
2017-08-10T11:39:51.459Z,18.10
2017-08-10T11:42:19.709Z,18.20
2017-08-10T11:44:47.170Z,18.20
2017-08-10T11:47:14.638Z,18.20
2017-08-10T11:49:42.104Z,18.10
2017-08-10T11:52:09.629Z,18.10
2017-08-10T11:54:37.146Z,18.00
2017-08-10T11:57:12.670Z,17.90
2017-08-10T11:59:43.310Z,17.90
2017-08-10T12:02:11.028Z,17.90
2017-08-10T12:04:38.733Z,17.80
2017-08-10T12:07:07.072Z,17.60
2017-08-10T12:09:47.732Z,17.60
2017-08-10T12:12:17.004Z,17.50
2017-08-10T12:14:45.461Z,17.30
2017-08-10T12:17:17.629Z,17.20
2017-08-10T12:19:50.588Z,16.90
2017-08-10T12:22:21.706Z,16.90
2017-08-10T12:24:50.696Z,16.90
2017-08-10T12:27:19.644Z,16.90
2017-08-10T12:29:48.232Z,16.80
2017-08-10T12:32:28.997Z,16.70
2017-08-10T12:34:57.211Z,16.90
2017-08-10T12:37:41.892Z,16.80
2017-08-10T12:40:24.577Z,16.70
2017-08-10T12:42:59.173Z,16.70
2017-08-10T12:45:28.026Z,16.60
2017-08-10T12:47:59.804Z,16.60
2017-08-10T12:50:54.241Z,16.60
2017-08-10T12:53:23.757Z,16.60
2017-08-10T12:55:52.792Z,16.70
2017-08-10T12:58:22.386Z,16.70
2017-08-10T13:00:49.994Z,16.80
2017-08-10T13:03:31.697Z,16.80
2017-08-10T13:05:59.335Z,16.90
2017-08-10T13:08:26.927Z,16.90
2017-08-10T13:10:54.611Z,17.00
2017-08-10T13:13:22.218Z,17.00
2017-08-10T13:15:49.836Z,17.00
2017-08-10T13:18:17.473Z,17.10
2017-08-10T13:20:51.232Z,17.10
2017-08-10T13:23:19.916Z,17.00
2017-08-10T13:25:47.680Z,16.90
2017-08-10T13:31:12.607Z,16.80
2017-08-10T13:33:41.507Z,16.70
2017-08-10T13:36:14.852Z,16.60
2017-08-10T13:38:51.363Z,16.70
2017-08-10T13:43:56.520Z,16.30
2017-08-10T13:46:27.021Z,16.30
2017-08-10T13:49:28.529Z,16.20
2017-08-10T13:51:56.488Z,16.30
2017-08-10T13:54:26.302Z,16.30
2017-08-10T13:56:55.671Z,16.20
2017-08-10T13:59:23.767Z,16.30
2017-08-10T14:01:51.500Z,16.30
2017-08-10T14:04:19.780Z,16.30
2017-08-10T14:06:47.625Z,16.30
2017-08-10T14:09:16.384Z,16.30
2017-08-10T14:11:44.853Z,16.30
2017-08-10T14:14:14.702Z,16.30
2017-08-10T14:16:54.602Z,16.40
2017-08-10T14:19:32.841Z,16.30
2017-08-10T14:24:54.274Z,16.40
2017-08-10T14:27:40.754Z,16.70
2017-08-10T14:30:40.342Z,16.80
2017-08-10T14:48:45.374Z,16.70
2017-08-10T15:03:51.574Z,15.50
2017-08-10T15:09:23.974Z,14.80
2017-08-10T15:15:21.606Z,14.40
2017-08-10T16:41:34.537Z,12.90
2017-08-10T16:44:02.134Z,12.90
2017-08-10T16:46:29.578Z,12.90
2017-08-10T16:48:57.195Z,12.90
2017-08-10T16:51:25.585Z,12.80
2017-08-10T16:53:53.119Z,12.80
2017-08-10T16:56:20.627Z,12.80
2017-08-10T16:58:48.317Z,12.80
2017-08-10T17:01:15.843Z,12.70
2017-08-10T17:03:43.327Z,12.70
2017-08-10T17:06:11.116Z,12.60
2017-08-10T17:08:38.769Z,12.60
2017-08-10T17:11:06.243Z,12.60
2017-08-10T17:13:33.812Z,12.60
2017-08-10T17:16:01.359Z,12.50
2017-08-10T17:18:29.090Z,12.50
2017-08-10T17:20:56.751Z,12.50
2017-08-10T17:23:24.465Z,12.40
2017-08-10T17:25:52.128Z,12.40
2017-08-10T17:28:19.851Z,12.40
2017-08-10T17:30:48.194Z,12.40
2017-08-10T17:33:15.771Z,12.40
2017-08-10T17:35:43.227Z,12.30
2017-08-10T17:38:10.974Z,12.30
2017-08-10T17:40:38.407Z,12.30
2017-08-10T17:43:05.995Z,12.30
2017-08-10T17:45:33.733Z,12.30
2017-08-10T17:48:01.406Z,12.30
2017-08-10T17:50:28.957Z,12.30
2017-08-10T17:52:56.497Z,12.30
2017-08-10T17:55:24.136Z,12.30
2017-08-10T17:57:51.599Z,12.30
2017-08-10T18:00:19.198Z,12.30
2017-08-10T18:02:47.367Z,12.20
2017-08-10T18:05:16.094Z,12.30
2017-08-10T18:07:43.711Z,12.30
2017-08-10T18:10:11.334Z,12.30
2017-08-10T18:12:38.854Z,12.30
2017-08-10T18:15:07.453Z,12.30
2017-08-10T18:17:35.027Z,12.30
2017-08-10T18:20:02.645Z,12.30
2017-08-10T18:22:30.315Z,12.30
2017-08-10T18:24:57.818Z,12.30
2017-08-10T18:27:25.309Z,12.30
2017-08-10T18:29:52.909Z,12.30
2017-08-10T18:32:20.386Z,12.30
2017-08-10T18:34:47.887Z,12.30
2017-08-10T19:24:59.549Z,12.10
2017-08-10T19:27:27.040Z,12.10
2017-08-10T19:29:54.500Z,12.10
2017-08-10T19:32:22.026Z,12.10
2017-08-10T19:34:49.487Z,12.00
2017-08-10T19:37:16.977Z,12.00
2017-08-10T19:39:44.682Z,12.00
2017-08-10T19:42:12.608Z,12.00
2017-08-10T19:44:40.384Z,12.00
2017-08-10T19:47:08.267Z,11.90
2017-08-10T19:49:35.921Z,11.90
2017-08-10T19:52:03.561Z,11.90
2017-08-10T19:54:31.068Z,12.00
2017-08-10T19:56:58.542Z,12.00
2017-08-10T19:59:26.118Z,11.90
2017-08-10T20:01:53.835Z,11.90
2017-08-10T20:04:21.278Z,11.90
2017-08-10T20:06:48.724Z,11.90
2017-08-10T20:09:16.179Z,11.90
2017-08-10T20:11:43.632Z,11.90
2017-08-10T20:14:11.126Z,11.90
2017-08-10T20:16:38.689Z,11.80
2017-08-10T20:19:06.643Z,11.80
